الصفحة الرئيسية
METAR-TAF:

METAR-TAF

مطار :

توسان, أريزونا, الولايات المتحدة

دائرة عرض: 32-08-32N, خط طول: 111-10-28W, ارتفاع: 737 متر

مراقبة الطقس الحالي

تاريخ ووقت الإصدار 17 دقيقة قبل الساعة 13:45UTC
ريح 6 عقدة من الجنوب/الجنوب الغربي
درجة الحرارة 4°درجة مئوية
الرطوبة 75%
ضغط 1025 hPa
الرؤية: 16.1 كم
سماء صافية

METAR: KRYN 131345Z 20006KT 10SM CLR 04/00 A3026

زمن: 07:02 (14:02 UTC)


TAF: مفقودة

أرصاد الطقس والتوقعات من أكثر من 4000 مطار (تقارير الطقس للمطار METAR والتنبؤ بالطقس بالمطارTAF).

المحطات المتاحة هي النقط الصفراء والحمراء على الخريطة.

حرك المؤشر فوق النقطة لمعرفة اسم المحطة.

ثم انقر لمعرفة أرصاد وتوقعات الطقس.

لتغيير الخارطة: اضغط على الأزرار الخضراء مع رمز الصليب الأسود للتكبير. على الزر الأخضر مع شرطة للتصغير، أو على الأسهم الخضراء للخرائط المجاورة.


METAR-TAF: